Ingenio La Esperanza, Argentina
Current Conditions -  °F | °C
As of 9:00 AM on Thursday 29 Jan 2015 (Local Time) from SASJ Reporting Station
Moderate Rain Moderate Rain  
Wind Chill: 70°   Ceiling: 4000
Heat Index: 70°   Visibility: 4mi
Dew Point: 66°   Wind: 6mph
Humidity: 88%   Direction: 180°S
Pressure: 30.15"   Gusts: NA
Location:  24.22°S, 64.85°W
Report Text: SASJ 291200Z 18005KT 7000 RA SCT015 OVC04021/19 Q1021
Loading
Personal Weather Stations






























Interactive Weather Map New forecast layout! Learn more

10-Day Weather Forecast

Advertisements
Track Severe Weather on mobile